createdAt,value
2022-09-12T00:01:20.249Z,78.33
2022-09-12T00:03:48.536Z,77.89
2022-09-12T00:06:32.121Z,77.56
2022-09-12T00:09:04.371Z,77.91
2022-09-12T00:11:32.233Z,78.25
2022-09-12T00:14:02.453Z,78.18
2022-09-12T00:16:33.252Z,77.92
2022-09-12T00:19:01.997Z,77.89
2022-09-12T00:21:29.392Z,77.62
2022-09-12T00:23:56.964Z,78.17
2022-09-12T00:26:24.219Z,77.28
2022-09-12T00:28:51.717Z,79.11
2022-09-12T00:31:24.833Z,78.24
2022-09-12T00:33:55.097Z,77.53
2022-09-12T00:36:25.588Z,77.80
2022-09-12T00:38:54.804Z,77.35
2022-09-12T00:41:42.126Z,78.21
2022-09-12T00:44:24.610Z,78.20
2022-09-12T00:46:58.329Z,77.10
2022-09-12T00:49:33.992Z,77.69
2022-09-12T00:52:13.799Z,77.21
2022-09-12T00:55:15.647Z,78.37
2022-09-12T00:58:14.632Z,78.23
2022-09-12T01:00:42.322Z,78.14
2022-09-12T01:03:17.413Z,77.68
2022-09-12T01:06:28.392Z,78.26
2022-09-12T01:08:57.744Z,78.46
2022-09-12T01:11:25.034Z,77.93
2022-09-12T01:13:52.325Z,78.32
2022-09-12T01:16:20.188Z,78.13
2022-09-12T01:19:28.325Z,78.34
2022-09-12T01:22:35.151Z,77.88
2022-09-12T01:25:31.784Z,77.91
2022-09-12T01:28:35.709Z,78.39
2022-09-12T01:31:17.445Z,78.80
2022-09-12T01:33:59.687Z,77.80
2022-09-12T01:36:38.656Z,77.16
2022-09-12T01:39:44.078Z,79.03
2022-09-12T01:42:59.009Z,77.53
2022-09-12T01:45:35.975Z,78.94
2022-09-12T01:48:32.441Z,78.75
2022-09-12T01:51:13.691Z,78.69
2022-09-12T01:53:47.070Z,79.75
2022-09-12T01:56:26.614Z,78.92
2022-09-12T01:59:17.012Z,79.34
2022-09-12T02:01:55.592Z,78.84
2022-09-12T02:04:33.952Z,79.01
2022-09-12T02:07:17.425Z,78.73
2022-09-12T02:10:12.544Z,78.22
2022-09-12T02:12:55.879Z,78.18
2022-09-12T02:15:35.174Z,78.62
2022-09-12T02:18:06.355Z,78.40
2022-09-12T02:20:48.981Z,78.56
2022-09-12T02:23:25.185Z,78.59
2022-09-12T02:26:00.399Z,78.75
2022-09-12T02:28:35.944Z,78.09
2022-09-12T02:31:33.827Z,78.45
2022-09-12T02:34:28.906Z,78.51
2022-09-12T02:37:13.302Z,78.84
2022-09-12T02:39:45.030Z,78.50
2022-09-12T02:42:13.133Z,79.47
2022-09-12T02:44:40.528Z,78.33
2022-09-12T02:47:20.662Z,79.25
2022-09-12T02:49:48.332Z,79.72
2022-09-12T02:52:16.263Z,78.85
2022-09-12T02:54:44.978Z,78.62
2022-09-12T02:57:21.884Z,78.93
2022-09-12T02:59:53.554Z,79.07
2022-09-12T03:02:41.597Z,78.74
2022-09-12T03:05:33.306Z,79.00
2022-09-12T03:08:29.056Z,79.06
2022-09-12T03:11:36.697Z,78.96
2022-09-12T03:14:36.050Z,78.63
2022-09-12T03:17:38.842Z,78.77
2022-09-12T03:20:24.940Z,78.52
2022-09-12T03:22:57.662Z,78.42
2022-09-12T03:25:42.113Z,78.20
2022-09-12T03:28:16.988Z,78.65
2022-09-12T03:30:46.735Z,78.76
2022-09-12T03:33:21.096Z,78.94
2022-09-12T03:35:49.270Z,78.56
2022-09-12T03:38:17.028Z,78.72
2022-09-12T03:40:44.939Z,78.73
2022-09-12T03:43:12.371Z,78.62
2022-09-12T03:45:39.681Z,78.79
2022-09-12T03:48:07.316Z,78.79
2022-09-12T03:50:34.970Z,79.15
2022-09-12T03:53:03.722Z,78.64
2022-09-12T03:55:31.209Z,78.90
2022-09-12T03:57:58.425Z,78.54
2022-09-12T04:00:26.175Z,78.24
2022-09-12T04:02:57.714Z,78.04
2022-09-12T04:05:26.233Z,78.47
2022-09-12T04:07:53.506Z,78.65
2022-09-12T04:10:20.883Z,78.47
2022-09-12T04:12:48.138Z,78.42
2022-09-12T04:15:15.571Z,78.49
2022-09-12T04:17:42.804Z,78.28
2022-09-12T04:20:10.325Z,78.18
2022-09-12T04:22:37.608Z,77.94
2022-09-12T04:25:05.508Z,77.70
2022-09-12T04:27:32.863Z,77.95
2022-09-12T04:30:02.288Z,78.33
2022-09-12T04:32:31.465Z,78.01
2022-09-12T04:34:58.941Z,78.47
2022-09-12T04:37:26.239Z,78.73
2022-09-12T04:39:57.897Z,78.91
2022-09-12T04:42:25.386Z,78.91
2022-09-12T04:44:52.622Z,78.77
2022-09-12T04:47:19.934Z,79.32
2022-09-12T04:49:48.595Z,79.60
2022-09-12T04:52:15.800Z,79.25
2022-09-12T04:54:43.001Z,79.36
2022-09-12T04:57:11.137Z,79.81
2022-09-12T04:59:39.597Z,79.99
2022-09-12T05:02:06.896Z,79.72
2022-09-12T05:04:34.934Z,80.04
2022-09-12T05:07:02.934Z,79.37
2022-09-12T05:09:30.317Z,79.47
2022-09-12T05:12:05.636Z,79.17
2022-09-12T05:14:34.230Z,80.04
2022-09-12T05:17:02.338Z,79.64
2022-09-12T05:19:31.418Z,79.77
2022-09-12T05:21:59.570Z,79.21
2022-09-12T05:24:27.395Z,78.74
2022-09-12T05:26:54.819Z,79.41
2022-09-12T05:29:22.074Z,79.87
2022-09-12T05:31:52.326Z,79.71
2022-09-12T05:34:21.009Z,78.87
2022-09-12T05:36:49.156Z,79.34
2022-09-12T05:39:16.594Z,79.43
2022-09-12T05:41:43.817Z,79.83
2022-09-12T05:44:15.251Z,79.50
2022-09-12T05:46:48.653Z,79.49
2022-09-12T05:49:15.921Z,80.71
2022-09-12T05:51:46.003Z,79.12
2022-09-12T05:54:17.860Z,80.11
2022-09-12T05:56:46.388Z,80.08
2022-09-12T05:59:19.856Z,80.03
2022-09-12T06:01:48.655Z,78.63
2022-09-12T06:04:17.236Z,78.91
2022-09-12T06:06:46.256Z,78.95
2022-09-12T06:09:16.685Z,78.33
2022-09-12T06:11:45.770Z,78.35
2022-09-12T06:14:16.312Z,78.73
2022-09-12T06:16:43.878Z,78.74
2022-09-12T06:19:20.601Z,80.68
2022-09-12T06:21:51.682Z,79.88
2022-09-12T06:24:20.249Z,78.76
2022-09-12T06:26:49.231Z,78.58
2022-09-12T06:29:17.313Z,80.03
2022-09-12T06:31:45.882Z,79.51
2022-09-12T06:34:15.629Z,79.29
2022-09-12T06:36:46.630Z,79.58
2022-09-12T06:39:22.832Z,80.55
2022-09-12T06:41:52.195Z,80.29
2022-09-12T06:44:23.037Z,81.68
2022-09-12T06:46:50.811Z,80.38
2022-09-12T06:49:18.323Z,80.54
2022-09-12T06:51:45.539Z,80.85
2022-09-12T06:54:15.664Z,80.36
2022-09-12T06:56:43.834Z,79.89
2022-09-12T06:59:11.100Z,79.00
2022-09-12T07:01:38.637Z,79.40
2022-09-12T07:04:06.146Z,78.62
2022-09-12T07:06:41.873Z,78.48
2022-09-12T07:09:13.947Z,78.62
2022-09-12T07:11:43.057Z,77.88
2022-09-12T07:14:14.094Z,78.96
2022-09-12T07:16:42.068Z,78.96
2022-09-12T07:19:11.011Z,77.55
2022-09-12T07:21:40.445Z,76.87
2022-09-12T07:24:10.178Z,75.16
2022-09-12T07:26:38.877Z,72.14
2022-09-12T07:29:34.737Z,70.88
2022-09-12T07:31:53.706Z,67.92
2022-09-12T07:34:20.957Z,67.80
2022-09-12T07:36:48.184Z,66.48
2022-09-12T07:39:15.479Z,69.40
2022-09-12T07:41:42.626Z,71.55
2022-09-12T07:44:09.998Z,69.88
2022-09-12T07:46:37.327Z,69.62
2022-09-12T07:49:04.631Z,71.89
2022-09-12T07:51:32.443Z,70.65
2022-09-12T07:54:00.160Z,71.93
2022-09-12T07:56:31.192Z,70.61
2022-09-12T07:59:00.073Z,71.90
2022-09-12T08:01:28.156Z,70.60
2022-09-12T08:03:59.153Z,68.91
2022-09-12T08:06:28.580Z,68.46
2022-09-12T08:08:58.272Z,68.69
2022-09-12T08:11:28.476Z,69.58
2022-09-12T08:13:57.784Z,69.36
2022-09-12T08:16:35.534Z,68.70
2022-09-12T08:19:04.024Z,68.02
2022-09-12T08:21:33.535Z,67.66
2022-09-12T08:24:06.302Z,65.48
2022-09-12T08:26:35.314Z,69.08
2022-09-12T08:29:02.661Z,70.18
2022-09-12T08:31:36.525Z,69.35
2022-09-12T08:34:07.945Z,66.17
2022-09-12T08:36:36.040Z,68.94
2022-09-12T08:39:08.036Z,68.64
2022-09-12T08:41:47.140Z,68.10
2022-09-12T08:44:35.571Z,66.60
2022-09-12T08:47:37.089Z,67.12
2022-09-12T08:50:12.872Z,66.02
2022-09-12T08:52:52.049Z,62.44
2022-09-12T08:55:28.443Z,64.11
2022-09-12T08:57:55.693Z,64.19
2022-09-12T09:00:23.282Z,63.50
2022-09-12T09:03:02.783Z,63.02
2022-09-12T09:05:51.454Z,63.87
2022-09-12T09:08:45.359Z,65.66
2022-09-12T09:11:42.932Z,65.27
2022-09-12T09:14:56.545Z,66.55
2022-09-12T09:17:33.082Z,64.31
2022-09-12T09:20:15.318Z,67.11
2022-09-12T09:23:22.133Z,65.91
2022-09-12T09:26:01.862Z,65.57
2022-09-12T09:28:42.679Z,64.42
2022-09-12T09:31:22.012Z,66.36
2022-09-12T09:33:55.246Z,66.09
2022-09-12T09:36:41.324Z,63.49
2022-09-12T09:39:35.251Z,65.92
2022-09-12T09:42:12.753Z,63.39
2022-09-12T09:44:40.367Z,63.72
2022-09-12T09:47:12.853Z,60.53
2022-09-12T09:49:40.532Z,63.67
2022-09-12T09:52:09.141Z,62.87
2022-09-12T09:54:57.449Z,64.42
2022-09-12T09:57:37.171Z,62.98
2022-09-12T10:00:31.707Z,61.00
2022-09-12T10:03:13.924Z,61.74
2022-09-12T10:06:01.244Z,62.16
2022-09-12T10:08:32.657Z,60.74
2022-09-12T10:11:19.405Z,60.71
2022-09-12T10:13:58.159Z,57.38
2022-09-12T10:16:30.314Z,61.09
2022-09-12T10:19:00.698Z,61.34
2022-09-12T10:22:01.093Z,59.41
2022-09-12T10:24:35.506Z,58.77
2022-09-12T10:27:41.342Z,61.27
2022-09-12T10:30:19.821Z,58.12
2022-09-12T10:32:54.212Z,59.69
2022-09-12T10:35:48.213Z,59.42
2022-09-12T10:38:33.571Z,60.68
2022-09-12T10:41:10.398Z,59.25
2022-09-12T10:43:41.506Z,56.46
2022-09-12T10:46:29.436Z,57.96
2022-09-12T10:49:31.551Z,57.72
2022-09-12T10:52:24.021Z,58.02
2022-09-12T10:54:52.449Z,57.72
2022-09-12T10:57:47.691Z,57.27
2022-09-12T11:00:27.550Z,57.93
2022-09-12T11:03:17.050Z,56.16
2022-09-12T11:06:01.866Z,57.11
2022-09-12T11:08:34.672Z,56.31
2022-09-12T11:11:29.633Z,58.15
2022-09-12T11:14:46.385Z,58.11
2022-09-12T11:17:47.384Z,58.74
2022-09-12T11:20:44.726Z,57.24
2022-09-12T11:23:14.737Z,58.81
2022-09-12T11:25:55.669Z,58.60
2022-09-12T11:28:50.731Z,56.50
2022-09-12T11:31:35.785Z,57.97
2022-09-12T11:34:09.711Z,56.76
2022-09-12T11:37:07.440Z,58.29
2022-09-12T11:39:41.514Z,60.13
2022-09-12T11:42:26.260Z,60.36
2022-09-12T11:45:17.875Z,58.06
2022-09-12T11:47:55.859Z,56.30
2022-09-12T11:50:32.206Z,58.84
2022-09-12T11:53:23.622Z,57.45
2022-09-12T11:56:17.271Z,57.12
2022-09-12T11:58:53.353Z,57.25
2022-09-12T12:01:48.695Z,54.11
2022-09-12T12:04:22.342Z,53.26
2022-09-12T12:07:11.314Z,54.06
2022-09-12T12:09:53.223Z,52.83
2022-09-12T12:12:25.621Z,51.66
2022-09-12T12:14:55.686Z,51.57
2022-09-12T12:17:25.689Z,55.56
2022-09-12T12:20:07.428Z,56.40
2022-09-12T12:22:36.153Z,57.50
2022-09-12T12:25:17.248Z,54.09
2022-09-12T12:27:59.199Z,55.49
2022-09-12T12:30:33.582Z,55.95
2022-09-12T12:33:02.106Z,55.81
2022-09-12T12:36:04.705Z,55.40
2022-09-12T12:38:44.494Z,54.88
2022-09-12T12:41:17.710Z,54.10
2022-09-12T12:43:48.583Z,55.03
2022-09-12T12:46:18.055Z,54.09
2022-09-12T12:49:27.612Z,56.17
2022-09-12T12:51:55.996Z,56.23
2022-09-12T12:54:41.459Z,55.49
2022-09-12T12:57:26.747Z,52.72
2022-09-12T12:59:55.833Z,51.23
2022-09-12T13:02:36.228Z,53.25
2022-09-12T13:05:16.249Z,56.77
2022-09-12T13:07:44.680Z,55.75
2022-09-12T13:10:29.361Z,51.80
2022-09-12T13:13:01.537Z,53.72
2022-09-12T13:15:37.949Z,53.12
2022-09-12T13:18:22.225Z,52.09
2022-09-12T13:21:16.019Z,54.55
2022-09-12T13:23:44.491Z,53.70
2022-09-12T13:26:28.221Z,52.92
2022-09-12T13:29:21.988Z,51.14
2022-09-12T13:31:56.441Z,53.42
2022-09-12T13:34:31.825Z,52.79
2022-09-12T13:37:49.708Z,51.44
2022-09-12T13:40:38.479Z,50.62
2022-09-12T13:43:17.817Z,51.38
2022-09-12T13:45:47.629Z,49.41
2022-09-12T13:48:23.612Z,49.42
2022-09-12T13:51:00.896Z,51.82
2022-09-12T13:53:38.211Z,51.12
2022-09-12T13:56:05.503Z,50.19
2022-09-12T13:58:35.237Z,51.26
2022-09-12T14:01:13.677Z,51.45
2022-09-12T14:04:14.059Z,51.31
2022-09-12T14:06:51.186Z,51.95
2022-09-12T14:09:32.703Z,50.01
2022-09-12T14:12:00.283Z,50.22
2022-09-12T14:14:43.984Z,52.60
2022-09-12T14:17:29.872Z,48.61
2022-09-12T14:19:59.460Z,48.99
2022-09-12T14:22:29.912Z,49.17
2022-09-12T14:24:59.662Z,50.94
2022-09-12T14:27:44.377Z,49.90
2022-09-12T14:30:36.547Z,50.13
2022-09-12T14:33:09.756Z,48.52
2022-09-12T14:35:43.296Z,50.94
2022-09-12T14:38:16.910Z,50.28
2022-09-12T14:41:01.847Z,51.06
2022-09-12T14:43:36.238Z,51.57
2022-09-12T14:46:18.213Z,49.62
2022-09-12T14:48:54.789Z,48.40
2022-09-12T14:51:34.794Z,50.71
2022-09-12T14:54:02.803Z,48.62
2022-09-12T14:56:45.344Z,49.51
2022-09-12T14:59:41.980Z,50.69
2022-09-12T15:02:20.779Z,50.91
2022-09-12T15:05:04.297Z,49.40
2022-09-12T15:08:03.818Z,49.73
2022-09-12T15:10:34.778Z,48.91
2022-09-12T15:13:11.101Z,51.19
2022-09-12T15:15:41.500Z,50.69
2022-09-12T15:18:09.769Z,50.13
2022-09-12T15:20:40.278Z,49.96
2022-09-12T15:23:17.446Z,48.70
2022-09-12T15:25:44.753Z,47.61
2022-09-12T15:28:21.189Z,48.15
2022-09-12T15:30:51.598Z,47.65
2022-09-12T15:33:21.104Z,47.67
2022-09-12T15:35:48.591Z,47.70
2022-09-12T15:38:15.880Z,50.29
2022-09-12T15:40:43.146Z,49.43
2022-09-12T15:43:14.150Z,49.36
2022-09-12T15:45:44.305Z,50.08
2022-09-12T15:48:11.898Z,49.02
2022-09-12T15:50:39.181Z,47.95
2022-09-12T15:53:06.421Z,49.16
2022-09-12T15:55:33.918Z,48.87
2022-09-12T15:58:06.265Z,48.13
2022-09-12T16:00:34.420Z,49.39
2022-09-12T16:03:01.842Z,48.09
2022-09-12T16:05:29.693Z,49.41
2022-09-12T16:07:56.948Z,49.26
2022-09-12T16:10:30.598Z,49.55
2022-09-12T16:12:58.398Z,50.15
2022-09-12T16:15:26.428Z,50.22
2022-09-12T16:17:54.149Z,50.15
2022-09-12T16:20:22.829Z,49.93
2022-09-12T16:22:50.149Z,48.90
2022-09-12T16:25:17.759Z,49.86
2022-09-12T16:27:45.848Z,49.92
2022-09-12T16:30:13.880Z,49.90
2022-09-12T16:32:41.504Z,50.64
2022-09-12T16:35:09.757Z,51.67
2022-09-12T16:37:36.998Z,49.29
2022-09-12T16:40:06.388Z,51.15
2022-09-12T16:42:33.682Z,50.23
2022-09-12T16:45:00.901Z,51.25
2022-09-12T16:47:32.208Z,50.53
2022-09-12T16:49:59.719Z,53.91
2022-09-12T16:52:27.259Z,53.26
2022-09-12T16:54:54.519Z,54.64
2022-09-12T16:57:22.562Z,53.87
2022-09-12T16:59:49.995Z,53.27
2022-09-12T17:02:17.297Z,52.77
2022-09-12T17:04:44.673Z,53.47
2022-09-12T17:07:11.901Z,53.75
2022-09-12T17:09:39.159Z,53.18
2022-09-12T17:12:06.650Z,53.30
2022-09-12T17:14:33.928Z,53.19
2022-09-12T17:17:01.222Z,54.82
2022-09-12T17:19:30.025Z,54.30
2022-09-12T17:21:58.416Z,53.83
2022-09-12T17:24:26.832Z,54.53
2022-09-12T17:26:54.882Z,54.49
2022-09-12T17:29:22.154Z,55.14
2022-09-12T17:31:49.452Z,55.29
2022-09-12T17:34:17.808Z,55.73
2022-09-12T17:36:48.478Z,55.82
2022-09-12T17:39:16.111Z,55.70
2022-09-12T17:41:45.781Z,56.20
2022-09-12T17:44:15.193Z,57.11
2022-09-12T17:46:43.426Z,57.07
2022-09-12T17:49:22.149Z,57.51
2022-09-12T17:51:49.485Z,58.86
2022-09-12T17:54:20.848Z,58.62
2022-09-12T17:56:49.900Z,58.64
2022-09-12T17:59:21.489Z,58.45
2022-09-12T18:02:07.523Z,58.73
2022-09-12T18:04:35.083Z,58.60
2022-09-12T18:07:02.457Z,57.40
2022-09-12T18:09:30.775Z,58.50
2022-09-12T18:11:58.675Z,58.60
2022-09-12T18:14:27.777Z,58.80
2022-09-12T18:16:57.229Z,59.27
2022-09-12T18:19:25.277Z,59.29
2022-09-12T18:21:52.739Z,59.10
2022-09-12T18:24:20.021Z,59.35
2022-09-12T18:26:47.380Z,59.21
2022-09-12T18:29:20.164Z,59.44
2022-09-12T18:31:48.093Z,60.21
2022-09-12T18:34:17.714Z,60.15
2022-09-12T18:36:48.897Z,59.95
2022-09-12T18:39:18.009Z,59.96
2022-09-12T18:41:45.385Z,60.24
2022-09-12T18:44:12.904Z,59.95
2022-09-12T18:46:40.293Z,60.46
2022-09-12T18:49:09.334Z,60.81
2022-09-12T18:51:40.139Z,60.51
2022-09-12T18:54:12.844Z,60.46
2022-09-12T18:56:43.527Z,60.59
2022-09-12T18:59:12.962Z,61.13
2022-09-12T19:01:40.646Z,61.17
2022-09-12T19:04:10.218Z,61.74
2022-09-12T19:06:44.713Z,61.65
2022-09-12T19:09:15.125Z,61.78
2022-09-12T19:11:48.973Z,61.88
2022-09-12T19:14:18.869Z,61.85
2022-09-12T19:16:46.337Z,62.15
2022-09-12T19:19:13.559Z,62.02
2022-09-12T19:21:42.135Z,62.11
2022-09-12T19:24:10.671Z,62.55
2022-09-12T19:26:39.627Z,62.37
2022-09-12T19:29:09.149Z,62.54
2022-09-12T19:31:36.391Z,62.75
2022-09-12T19:34:06.463Z,63.12
2022-09-12T19:36:44.785Z,63.17
2022-09-12T19:39:12.926Z,63.17
2022-09-12T19:41:40.083Z,63.07
2022-09-12T19:44:07.429Z,62.96
2022-09-12T19:46:34.995Z,62.92
2022-09-12T19:49:02.287Z,63.09
2022-09-12T19:51:29.599Z,63.08
2022-09-12T19:53:56.988Z,63.20
2022-09-12T19:56:24.180Z,63.08
2022-09-12T19:58:56.095Z,63.56
2022-09-12T20:01:29.988Z,63.69
2022-09-12T20:03:58.102Z,63.75
2022-09-12T20:06:26.912Z,63.83
2022-09-12T20:08:55.062Z,64.13
2022-09-12T20:11:24.462Z,64.00
2022-09-12T20:13:52.435Z,64.27
2022-09-12T20:16:29.194Z,64.17
2022-09-12T20:19:03.699Z,63.92
2022-09-12T20:21:32.661Z,64.55
2022-09-12T20:24:04.617Z,64.38
2022-09-12T20:26:32.180Z,64.91
2022-09-12T20:29:00.143Z,64.76
2022-09-12T20:31:27.693Z,64.15
2022-09-12T20:33:55.428Z,64.37
2022-09-12T20:36:23.886Z,64.40
2022-09-12T20:39:02.591Z,65.30
2022-09-12T20:41:33.800Z,64.98
2022-09-12T20:44:01.004Z,64.87
2022-09-12T20:46:29.139Z,64.87
2022-09-12T20:48:57.038Z,64.86
2022-09-12T20:51:26.675Z,64.61
2022-09-12T20:54:00.187Z,64.93
2022-09-12T20:56:29.054Z,65.28
2022-09-12T20:58:57.594Z,64.72
2022-09-12T21:01:26.912Z,65.05
2022-09-12T21:03:55.227Z,65.13
2022-09-12T21:06:22.596Z,66.17
2022-09-12T21:08:51.022Z,65.60
2022-09-12T21:11:20.268Z,65.46
2022-09-12T21:13:47.892Z,65.74
2022-09-12T21:16:19.060Z,66.00
2022-09-12T21:18:46.821Z,65.65
2022-09-12T21:21:16.392Z,65.44
2022-09-12T21:23:43.687Z,65.17
2022-09-12T21:26:11.257Z,65.35
2022-09-12T21:28:38.600Z,65.18
2022-09-12T21:31:06.197Z,65.24
2022-09-12T21:33:33.555Z,65.14
2022-09-12T21:36:06.540Z,64.90
2022-09-12T21:38:34.757Z,64.84
2022-09-12T21:41:11.801Z,65.38
2022-09-12T21:43:39.714Z,64.82
2022-09-12T21:46:08.456Z,65.42
2022-09-12T21:48:36.678Z,64.96
2022-09-12T21:51:04.508Z,65.17
2022-09-12T21:53:32.224Z,65.21
2022-09-12T21:56:07.072Z,64.88
2022-09-12T21:58:34.906Z,65.43
2022-09-12T22:01:02.687Z,65.52
2022-09-12T22:03:30.841Z,65.36
2022-09-12T22:06:03.853Z,65.96
2022-09-12T22:08:33.366Z,66.18
2022-09-12T22:11:04.682Z,65.43
2022-09-12T22:13:32.521Z,66.01
2022-09-12T22:16:03.484Z,65.68
2022-09-12T22:18:36.928Z,65.92
2022-09-12T22:21:19.424Z,66.08
2022-09-12T22:24:05.149Z,65.78
2022-09-12T22:26:42.015Z,65.91
2022-09-12T22:29:10.432Z,65.86
2022-09-12T22:31:38.642Z,66.27
2022-09-12T22:34:06.642Z,65.67
2022-09-12T22:36:37.042Z,66.04
2022-09-12T22:39:06.496Z,65.75
2022-09-12T22:41:33.883Z,66.06
2022-09-12T22:44:01.207Z,65.98
2022-09-12T22:46:30.090Z,66.48
2022-09-12T22:48:57.430Z,66.62
2022-09-12T22:51:24.741Z,65.81
2022-09-12T22:53:52.470Z,66.28
2022-09-12T22:56:19.852Z,66.33
2022-09-12T22:58:47.113Z,66.37
2022-09-12T23:01:14.683Z,66.58
2022-09-12T23:03:42.313Z,65.81
2022-09-12T23:06:11.306Z,65.74
2022-09-12T23:08:39.927Z,66.24
2022-09-12T23:11:13.874Z,66.11
2022-09-12T23:13:45.464Z,66.09
2022-09-12T23:16:21.777Z,66.00
2022-09-12T23:18:49.491Z,66.18
2022-09-12T23:21:20.275Z,66.32
2022-09-12T23:23:47.645Z,66.20
2022-09-12T23:26:18.296Z,66.25
2022-09-12T23:29:05.823Z,66.48
2022-09-12T23:31:34.797Z,66.05
2022-09-12T23:34:06.123Z,66.05
2022-09-12T23:36:34.597Z,65.92
2022-09-12T23:39:02.349Z,66.07
2022-09-12T23:41:29.794Z,66.52
2022-09-12T23:43:57.317Z,66.41
2022-09-12T23:46:24.832Z,66.51
2022-09-12T23:48:53.496Z,66.65
2022-09-12T23:51:22.117Z,67.26
2022-09-12T23:53:50.201Z,67.39
2022-09-12T23:56:17.443Z,67.91
2022-09-12T23:58:44.798Z,67.94
